CheckWX is a tool to help pilots better visualize weather data.  It is not intended as a substitute for an official pre-flight weather briefing.

12:10:11 UTC

VIDP METAR
Indira Gandhi International Airport
New Delhi, India
Current

40 mins ago

VIDP 201130Z 33004KT 2500 HZ NSC 25/11 Q1013 NOSIG
Observed
Nov-20 @ 11:30 UTC
Wind
  • 330° at 4 KTS
Visibility
2,500 meters
Flight Rules
IFR
Conditions
Haze
Cloud Levels
  • Clear skies
Temperature
25°C / 77°F
Dewpoint
11°C / 52°F
Humidity
42%
Altimeter
29.91" Hg
Pressure
1012.92 hPa
Previous

1 hour ago

VIDP 201100Z 32004KT 2500 HZ NSC 26/11 Q1013 NOSIG
Observed
Nov-20 @ 11:00 UTC
Wind
  • 320° at 4 KTS
Visibility
2,500 meters
Flight Rules
IFR
Conditions
Haze
Cloud Levels
  • Clear skies
Temperature
26°C / 79°F
Dewpoint
11°C / 52°F
Humidity
39%
Altimeter
29.91" Hg
Pressure
1012.92 hPa
Previous

2 hours ago

VIDP 201030Z 30006KT 2500 HZ NSC 26/11 Q1013 NOSIG
Observed
Nov-20 @ 10:30 UTC
Wind
  • 300° at 6 KTS
Visibility
2,500 meters
Flight Rules
IFR
Conditions
Haze
Cloud Levels
  • Clear skies
Temperature
26°C / 79°F
Dewpoint
11°C / 52°F
Humidity
39%
Altimeter
29.91" Hg
Pressure
1012.92 hPa